Terminal Aerodrome Forecast
Issued by NWS

Home | Current Version | Previous Version | Text Only | Print | Product List | Glossary Off
Versions: 1 2 3 4 5 6 7 8 9 10 11 12 13 14 15 16

000
FTUS43 KICT 300500
TAFSLN
TAF
KSLN 300520Z 3006/3106 10007KT P6SM BKN070
     FM300700 10007KT P6SM VCSH BKN050
      TEMPO 3007/3011 -SHRA
     FM301300 09007KT P6SM SCT040 OVC070
     FM302200 05005KT P6SM BKN150=

USA.gov is the U.S. government's official web portal to all federal, state and local government web resources and services.